LEBA/ODB METAR and TAF weather

Enter ICAO airport designator
Station Type Date Time Source
LEBA METAR 2022/06/30 01:30 UTC NOAA

LEBA 300130Z AUTO 26003KT CAVOK 20/10 Q1012


Station Type Date Time Source
LEBA Decoded METAR 2022/06/30 01:30 UTC NOAA

Cordoba / Aeropuerto, Spain (LEBA) 37-51N 004-51W 92M
Jun 29, 2022 - 09:30 PM EDT / 2022.06.30 0130 UTC
Wind: from the W (260 degrees) at 3 MPH (3 KT):0
Visibility: greater than 7 mile(s):0
Temperature: 68 F (20 C)
Dew Point: 50 F (10 C)
Relative Humidity: 52%
Pressure (altimeter): 29.88 in. Hg (1012 hPa)
ob: LEBA 300130Z AUTO 26003KT CAVOK 20/10 Q1012
cycle: 1

Station Type Date Time Source
LEBA TAF 2022/06/29 15:27 UTC NOAA

TAF LEBA 291400Z 2915/3015 26010KT CAVOK TX35/2915Z TN17/3005Z
BECMG 2923/3001 VRB02KT
BECMG 3010/3012 26010KT

Example: see airport list